sensor_id;sensor_type;location;lat;lon;timestamp;pressure;altitude;pressure_sealevel;temperature;humidity
10462;BME280;5278;42.656;23.374;2023-02-18T00:00:19;95400.44;;;7.58;52.54
10462;BME280;5278;42.656;23.374;2023-02-18T00:02:49;95391.31;;;7.54;52.71
10462;BME280;5278;42.656;23.374;2023-02-18T00:05:20;95384.81;;;7.50;52.59
10462;BME280;5278;42.656;23.374;2023-02-18T00:07:47;95381.81;;;7.45;52.63
10462;BME280;5278;42.656;23.374;2023-02-18T00:10:14;95383.44;;;7.46;52.81
10462;BME280;5278;42.656;23.374;2023-02-18T00:12:43;95386.28;;;7.43;53.26
10462;BME280;5278;42.656;23.374;2023-02-18T00:15:11;95368.75;;;7.37;53.38
10462;BME280;5278;42.656;23.374;2023-02-18T00:17:38;95361.13;;;7.35;53.70
10462;BME280;5278;42.656;23.374;2023-02-18T00:20:06;95367.13;;;7.36;53.72
10462;BME280;5278;42.656;23.374;2023-02-18T00:22:34;95357.44;;;7.28;53.96
10462;BME280;5278;42.656;23.374;2023-02-18T00:25:01;95357.72;;;7.25;54.07
10462;BME280;5278;42.656;23.374;2023-02-18T00:27:29;95352.44;;;7.27;54.47
10462;BME280;5278;42.656;23.374;2023-02-18T00:29:58;95344.00;;;7.25;54.49
10462;BME280;5278;42.656;23.374;2023-02-18T00:32:25;95339.34;;;7.28;54.43
10462;BME280;5278;42.656;23.374;2023-02-18T00:34:52;95320.63;;;7.07;54.17
10462;BME280;5278;42.656;23.374;2023-02-18T00:37:19;95330.13;;;7.26;54.63
10462;BME280;5278;42.656;23.374;2023-02-18T00:39:46;95333.94;;;7.22;54.93
10462;BME280;5278;42.656;23.374;2023-02-18T00:42:13;95334.72;;;7.22;54.98
10462;BME280;5278;42.656;23.374;2023-02-18T00:44:40;95327.38;;;7.08;55.32
10462;BME280;5278;42.656;23.374;2023-02-18T00:47:08;95320.06;;;7.04;55.98
10462;BME280;5278;42.656;23.374;2023-02-18T00:49:35;95328.91;;;7.11;55.39
10462;BME280;5278;42.656;23.374;2023-02-18T00:52:03;95312.31;;;6.94;55.18
10462;BME280;5278;42.656;23.374;2023-02-18T00:54:30;95324.00;;;7.08;55.40
10462;BME280;5278;42.656;23.374;2023-02-18T00:56:57;95325.91;;;7.06;55.56
10462;BME280;5278;42.656;23.374;2023-02-18T00:59:23;95339.47;;;6.98;55.89
10462;BME280;5278;42.656;23.374;2023-02-18T01:01:51;95324.00;;;6.98;56.02
10462;BME280;5278;42.656;23.374;2023-02-18T01:04:19;95330.50;;;6.92;56.69
10462;BME280;5278;42.656;23.374;2023-02-18T01:06:46;95315.16;;;6.81;56.68
10462;BME280;5278;42.656;23.374;2023-02-18T01:09:13;95328.72;;;6.83;57.15
10462;BME280;5278;42.656;23.374;2023-02-18T01:11:42;95335.53;;;6.75;57.73
10462;BME280;5278;42.656;23.374;2023-02-18T01:14:09;95321.25;;;6.61;57.17
10462;BME280;5278;42.656;23.374;2023-02-18T01:16:36;95339.84;;;6.65;57.98
10462;BME280;5278;42.656;23.374;2023-02-18T01:19:03;95326.13;;;6.64;57.69
10462;BME280;5278;42.656;23.374;2023-02-18T01:21:32;95322.47;;;6.57;57.47
10462;BME280;5278;42.656;23.374;2023-02-18T01:23:58;95326.41;;;6.61;57.52
10462;BME280;5278;42.656;23.374;2023-02-18T01:26:26;95331.16;;;6.56;57.75
10462;BME280;5278;42.656;23.374;2023-02-18T01:28:52;95336.72;;;6.61;58.00
10462;BME280;5278;42.656;23.374;2023-02-18T01:31:20;95328.41;;;6.58;57.94
10462;BME280;5278;42.656;23.374;2023-02-18T01:33:46;95322.47;;;6.57;58.10
10462;BME280;5278;42.656;23.374;2023-02-18T01:36:14;95311.72;;;6.62;57.80
10462;BME280;5278;42.656;23.374;2023-02-18T01:38:44;95308.31;;;6.52;58.09
10462;BME280;5278;42.656;23.374;2023-02-18T01:41:11;95327.34;;;6.60;57.97
10462;BME280;5278;42.656;23.374;2023-02-18T01:43:38;95326.53;;;6.60;57.83
10462;BME280;5278;42.656;23.374;2023-02-18T01:46:14;95340.25;;;6.60;57.64
10462;BME280;5278;42.656;23.374;2023-02-18T01:48:45;95333.56;;;6.58;57.95
10462;BME280;5278;42.656;23.374;2023-02-18T01:51:16;95340.66;;;6.65;57.22
10462;BME280;5278;42.656;23.374;2023-02-18T01:53:49;95314.03;;;6.55;57.48
10462;BME280;5278;42.656;23.374;2023-02-18T01:56:24;95342.31;;;6.66;57.59
10462;BME280;5278;42.656;23.374;2023-02-18T01:58:54;95335.09;;;6.60;57.64
10462;BME280;5278;42.656;23.374;2023-02-18T02:01:22;95343.41;;;6.73;57.00
10462;BME280;5278;42.656;23.374;2023-02-18T02:03:49;95335.81;;;6.72;57.00
10462;BME280;5278;42.656;23.374;2023-02-18T02:06:18;95339.88;;;6.74;56.92
10462;BME280;5278;42.656;23.374;2023-02-18T02:08:49;95335.81;;;6.81;56.08
10462;BME280;5278;42.656;23.374;2023-02-18T02:11:24;95328.47;;;6.86;55.98
10462;BME280;5278;42.656;23.374;2023-02-18T02:14:06;95329.84;;;6.81;56.24
10462;BME280;5278;42.656;23.374;2023-02-18T02:16:41;95313.09;;;6.75;55.98
10462;BME280;5278;42.656;23.374;2023-02-18T02:19:53;95323.56;;;6.83;56.02
10462;BME280;5278;42.656;23.374;2023-02-18T02:29:02;95328.72;;;6.83;56.66
10462;BME280;5278;42.656;23.374;2023-02-18T02:32:03;95326.53;;;6.69;57.21
10462;BME280;5278;42.656;23.374;2023-02-18T02:34:44;95328.03;;;6.62;57.58
10462;BME280;5278;42.656;23.374;2023-02-18T02:37:17;95326.41;;;6.61;57.65
10462;BME280;5278;42.656;23.374;2023-02-18T02:39:56;95314.44;;;6.60;57.44
10462;BME280;5278;42.656;23.374;2023-02-18T02:42:35;95323.13;;;6.59;57.59
10462;BME280;5278;42.656;23.374;2023-02-18T02:45:09;95313.75;;;6.58;57.63
10462;BME280;5278;42.656;23.374;2023-02-18T02:47:43;95313.91;;;6.57;57.45
10462;BME280;5278;42.656;23.374;2023-02-18T02:50:16;95311.16;;;6.58;57.50
10462;BME280;5278;42.656;23.374;2023-02-18T02:52:49;95303.69;;;6.55;57.48
10462;BME280;5278;42.656;23.374;2023-02-18T02:55:18;95305.59;;;6.53;57.69
10462;BME280;5278;42.656;23.374;2023-02-18T02:57:49;95306.28;;;6.55;57.47
10462;BME280;5278;42.656;23.374;2023-02-18T03:00:19;95293.66;;;6.52;57.34
10462;BME280;5278;42.656;23.374;2023-02-18T03:03:16;95320.53;;;6.59;56.88
10462;BME280;5278;42.656;23.374;2023-02-18T03:06:03;95320.25;;;6.53;56.83
10462;BME280;5278;42.656;23.374;2023-02-18T03:08:45;95325.31;;;6.64;57.14
10462;BME280;5278;42.656;23.374;2023-02-18T03:11:16;95321.91;;;6.63;57.25
10462;BME280;5278;42.656;23.374;2023-02-18T03:13:52;95317.31;;;6.67;57.41
10462;BME280;5278;42.656;23.374;2023-02-18T03:16:26;95320.53;;;6.59;57.44
10462;BME280;5278;42.656;23.374;2023-02-18T03:19:02;95312.38;;;6.54;57.49
10462;BME280;5278;42.656;23.374;2023-02-18T03:21:36;95310.06;;;6.51;57.37
10462;BME280;5278;42.656;23.374;2023-02-18T03:24:09;95324.63;;;6.52;57.48
10462;BME280;5278;42.656;23.374;2023-02-18T03:26:52;95336.31;;;6.56;57.58
10462;BME280;5278;42.656;23.374;2023-02-18T03:29:21;95206.22;;;5.69;57.26
10462;BME280;5278;42.656;23.374;2023-02-18T03:31:52;95325.09;;;6.27;57.79
10462;BME280;5278;42.656;23.374;2023-02-18T03:34:28;95357.88;;;6.45;58.15
10462;BME280;5278;42.656;23.374;2023-02-18T03:36:59;95367.25;;;6.46;58.57
10462;BME280;5278;42.656;23.374;2023-02-18T03:39:28;95341.22;;;6.29;58.24
10462;BME280;5278;42.656;23.374;2023-02-18T03:41:55;95382.44;;;6.40;58.44
10462;BME280;5278;42.656;23.374;2023-02-18T03:44:23;95373.72;;;6.31;58.94
10462;BME280;5278;42.656;23.374;2023-02-18T03:46:50;95357.50;;;6.20;58.93
10462;BME280;5278;42.656;23.374;2023-02-18T03:49:18;95371.72;;;6.14;59.18
10462;BME280;5278;42.656;23.374;2023-02-18T03:51:45;95382.03;;;6.14;59.58
10462;BME280;5278;42.656;23.374;2023-02-18T03:54:13;95383.13;;;6.12;60.01
10462;BME280;5278;42.656;23.374;2023-02-18T03:56:41;95388.78;;;6.05;59.89
10462;BME280;5278;42.656;23.374;2023-02-18T03:59:10;95388.69;;;6.07;59.98
10462;BME280;5278;42.656;23.374;2023-02-18T04:01:38;95389.50;;;6.08;59.82
10462;BME280;5278;42.656;23.374;2023-02-18T04:04:05;95370.34;;;6.10;59.86
10462;BME280;5278;42.656;23.374;2023-02-18T04:06:32;95362.44;;;6.02;60.46
10462;BME280;5278;42.656;23.374;2023-02-18T04:08:59;95362.13;;;5.95;60.74
10462;BME280;5278;42.656;23.374;2023-02-18T04:11:28;95366.16;;;5.88;61.22
10462;BME280;5278;42.656;23.374;2023-02-18T04:13:55;95370.72;;;5.85;61.70
10462;BME280;5278;42.656;23.374;2023-02-18T04:16:21;95357.72;;;5.86;61.95
10462;BME280;5278;42.656;23.374;2023-02-18T04:18:48;95323.53;;;5.63;61.95
10462;BME280;5278;42.656;23.374;2023-02-18T04:21:16;95354.00;;;5.79;61.91
10462;BME280;5278;42.656;23.374;2023-02-18T04:23:44;95359.81;;;5.72;61.91
10462;BME280;5278;42.656;23.374;2023-02-18T04:26:11;95328.19;;;5.49;62.73
10462;BME280;5278;42.656;23.374;2023-02-18T04:28:39;95350.13;;;5.64;63.09
10462;BME280;5278;42.656;23.374;2023-02-18T04:31:06;95331.63;;;5.59;62.93
10462;BME280;5278;42.656;23.374;2023-02-18T04:33:33;95337.88;;;5.56;63.26
10462;BME280;5278;42.656;23.374;2023-02-18T04:36:00;95269.91;;;5.06;63.24
10462;BME280;5278;42.656;23.374;2023-02-18T04:38:29;95339.31;;;5.49;63.67
10462;BME280;5278;42.656;23.374;2023-02-18T04:40:56;95325.75;;;5.47;62.95
10462;BME280;5278;42.656;23.374;2023-02-18T04:43:22;95344.66;;;5.37;63.48
10462;BME280;5278;42.656;23.374;2023-02-18T04:45:52;95338.47;;;5.28;63.56
10462;BME280;5278;42.656;23.374;2023-02-18T04:48:19;95345.19;;;5.19;64.63
10462;BME280;5278;42.656;23.374;2023-02-18T04:50:46;95349.91;;;5.14;64.68
10462;BME280;5278;42.656;23.374;2023-02-18T04:53:13;95353.63;;;5.22;64.74
10462;BME280;5278;42.656;23.374;2023-02-18T04:55:41;95351.34;;;5.28;64.67
10462;BME280;5278;42.656;23.374;2023-02-18T04:58:08;95352.88;;;5.31;64.66
10462;BME280;5278;42.656;23.374;2023-02-18T05:00:35;95360.63;;;5.31;64.33
10462;BME280;5278;42.656;23.374;2023-02-18T05:03:04;95353.75;;;5.20;64.64
10462;BME280;5278;42.656;23.374;2023-02-18T05:05:31;95368.22;;;5.32;64.80
10462;BME280;5278;42.656;23.374;2023-02-18T05:07:58;95375.56;;;5.37;64.86
10462;BME280;5278;42.656;23.374;2023-02-18T05:10:25;95367.41;;;5.32;64.84
10462;BME280;5278;42.656;23.374;2023-02-18T05:12:52;95351.25;;;5.30;64.29
10462;BME280;5278;42.656;23.374;2023-02-18T05:15:19;95365.78;;;5.51;64.21
10462;BME280;5278;42.656;23.374;2023-02-18T05:17:46;95363.75;;;5.55;64.20
10462;BME280;5278;42.656;23.374;2023-02-18T05:20:14;95347.44;;;5.66;63.87
10462;BME280;5278;42.656;23.374;2023-02-18T05:22:41;95355.47;;;5.72;63.42
10462;BME280;5278;42.656;23.374;2023-02-18T05:25:08;95364.59;;;5.76;63.05
10462;BME280;5278;42.656;23.374;2023-02-18T05:27:35;95365.84;;;5.82;62.86
10462;BME280;5278;42.656;23.374;2023-02-18T05:30:02;95356.81;;;5.87;62.48
10462;BME280;5278;42.656;23.374;2023-02-18T05:32:29;95342.72;;;5.91;61.66
10462;BME280;5278;42.656;23.374;2023-02-18T05:34:56;95347.72;;;5.93;61.89
10462;BME280;5278;42.656;23.374;2023-02-18T05:37:25;95342.56;;;5.93;62.34
10462;BME280;5278;42.656;23.374;2023-02-18T05:39:52;95347.59;;;5.94;61.93
10462;BME280;5278;42.656;23.374;2023-02-18T05:42:19;95327.72;;;5.85;61.81
10462;BME280;5278;42.656;23.374;2023-02-18T05:44:47;95358.31;;;5.90;62.26
10462;BME280;5278;42.656;23.374;2023-02-18T05:47:15;95332.31;;;5.82;62.42
10462;BME280;5278;42.656;23.374;2023-02-18T05:49:43;95351.81;;;5.95;62.32
10462;BME280;5278;42.656;23.374;2023-02-18T05:52:10;95344.91;;;5.96;62.24
10462;BME280;5278;42.656;23.374;2023-02-18T05:54:40;95366.09;;;5.99;62.16
10462;BME280;5278;42.656;23.374;2023-02-18T05:57:06;95376.03;;;6.04;61.90
10462;BME280;5278;42.656;23.374;2023-02-18T05:59:34;95380.16;;;6.16;61.36
10462;BME280;5278;42.656;23.374;2023-02-18T06:02:02;95358.28;;;6.11;61.05
10462;BME280;5278;42.656;23.374;2023-02-18T06:04:29;95370.94;;;6.23;60.28
10462;BME280;5278;42.656;23.374;2023-02-18T06:06:56;95380.78;;;6.39;59.74
10462;BME280;5278;42.656;23.374;2023-02-18T06:09:23;95375.97;;;6.55;58.99
10462;BME280;5278;42.656;23.374;2023-02-18T06:11:52;95361.34;;;6.75;57.97
10462;BME280;5278;42.656;23.374;2023-02-18T06:14:19;95358.78;;;6.84;57.81
10462;BME280;5278;42.656;23.374;2023-02-18T06:16:46;95366.97;;;7.09;57.46
10462;BME280;5278;42.656;23.374;2023-02-18T06:19:13;95358.56;;;7.26;56.15
10462;BME280;5278;42.656;23.374;2023-02-18T06:21:40;95348.75;;;7.39;56.23
10462;BME280;5278;42.656;23.374;2023-02-18T06:24:08;95362.06;;;7.63;55.85
10462;BME280;5278;42.656;23.374;2023-02-18T06:26:35;95355.38;;;7.80;53.46
10462;BME280;5278;42.656;23.374;2023-02-18T06:29:04;95360.22;;;7.93;53.59
10462;BME280;5278;42.656;23.374;2023-02-18T06:31:30;95357.47;;;8.04;52.78
10462;BME280;5278;42.656;23.374;2023-02-18T06:33:57;95351.59;;;8.21;52.26
10462;BME280;5278;42.656;23.374;2023-02-18T06:36:24;95329.72;;;8.43;51.87
10462;BME280;5278;42.656;23.374;2023-02-18T06:38:52;95339.34;;;8.50;50.94
10462;BME280;5278;42.656;23.374;2023-02-18T06:41:22;95306.75;;;10.49;93.67
10462;BME280;5278;42.656;23.374;2023-02-18T06:43:49;95338.47;;;11.92;59.17
10462;BME280;5278;42.656;23.374;2023-02-18T06:46:18;95341.56;;;12.98;47.92
10462;BME280;5278;42.656;23.374;2023-02-18T06:48:45;95330.75;;;13.77;42.78
10462;BME280;5278;42.656;23.374;2023-02-18T06:51:11;95326.47;;;13.61;38.99
10462;BME280;5278;42.656;23.374;2023-02-18T06:53:39;95332.19;;;13.19;39.09
10462;BME280;5278;42.656;23.374;2023-02-18T06:56:05;95323.59;;;12.72;39.49
10462;BME280;5278;42.656;23.374;2023-02-18T06:58:33;95322.75;;;12.32;39.81
10462;BME280;5278;42.656;23.374;2023-02-18T07:01:00;95342.88;;;11.99;40.63
10462;BME280;5278;42.656;23.374;2023-02-18T07:03:28;95343.34;;;11.62;41.13
10462;BME280;5278;42.656;23.374;2023-02-18T07:05:55;95335.22;;;11.49;41.99
10462;BME280;5278;42.656;23.374;2023-02-18T07:08:23;95340.72;;;11.46;42.51
10462;BME280;5278;42.656;23.374;2023-02-18T07:10:50;95330.66;;;11.51;43.26
10462;BME280;5278;42.656;23.374;2023-02-18T07:13:17;95328.25;;;11.74;41.91
10462;BME280;5278;42.656;23.374;2023-02-18T07:15:44;95316.53;;;11.78;41.12
10462;BME280;5278;42.656;23.374;2023-02-18T07:18:11;95334.91;;;11.93;41.32
10462;BME280;5278;42.656;23.374;2023-02-18T07:20:40;95328.22;;;11.98;40.77
10462;BME280;5278;42.656;23.374;2023-02-18T07:23:07;95325.28;;;12.10;40.00
10462;BME280;5278;42.656;23.374;2023-02-18T07:25:33;95310.31;;;12.03;40.49
10462;BME280;5278;42.656;23.374;2023-02-18T07:28:00;95331.50;;;11.84;40.79
10462;BME280;5278;42.656;23.374;2023-02-18T07:30:28;95313.41;;;11.66;40.52
10462;BME280;5278;42.656;23.374;2023-02-18T07:32:55;95332.31;;;11.60;40.56
10462;BME280;5278;42.656;23.374;2023-02-18T07:35:22;95327.28;;;11.75;40.77
10462;BME280;5278;42.656;23.374;2023-02-18T07:37:50;95316.50;;;11.62;40.94
10462;BME280;5278;42.656;23.374;2023-02-18T07:40:20;95340.63;;;11.80;40.58
10462;BME280;5278;42.656;23.374;2023-02-18T07:42:48;95332.78;;;11.72;40.67
10462;BME280;5278;42.656;23.374;2023-02-18T07:45:14;95346.78;;;11.55;40.61
10462;BME280;5278;42.656;23.374;2023-02-18T07:47:42;95335.03;;;11.51;41.70
10462;BME280;5278;42.656;23.374;2023-02-18T07:50:10;95347.09;;;11.60;41.42
10462;BME280;5278;42.656;23.374;2023-02-18T07:52:38;95350.34;;;11.86;40.81
10462;BME280;5278;42.656;23.374;2023-02-18T07:55:07;95346.44;;;12.06;40.05
10462;BME280;5278;42.656;23.374;2023-02-18T07:57:35;95346.72;;;12.28;39.33
10462;BME280;5278;42.656;23.374;2023-02-18T08:00:22;95349.16;;;12.21;38.96
10462;BME280;5278;42.656;23.374;2023-02-18T08:02:49;95344.88;;;12.44;39.06
10462;BME280;5278;42.656;23.374;2023-02-18T08:05:15;95340.72;;;12.66;38.49
10462;BME280;5278;42.656;23.374;2023-02-18T08:07:42;95337.75;;;12.77;38.05
10462;BME280;5278;42.656;23.374;2023-02-18T08:10:11;95330.03;;;13.23;37.04
10462;BME280;5278;42.656;23.374;2023-02-18T08:12:38;95329.47;;;14.25;35.64
10462;BME280;5278;42.656;23.374;2023-02-18T08:15:05;95337.06;;;15.50;33.75
10462;BME280;5278;42.656;23.374;2023-02-18T08:17:31;95323.50;;;17.20;30.98
10462;BME280;5278;42.656;23.374;2023-02-18T08:19:58;95305.41;;;18.37;28.90
10462;BME280;5278;42.656;23.374;2023-02-18T08:22:25;95290.19;;;18.39;28.75
10462;BME280;5278;42.656;23.374;2023-02-18T08:24:53;95304.13;;;18.53;28.95
10462;BME280;5278;42.656;23.374;2023-02-18T08:27:23;95282.94;;;19.37;27.23
10462;BME280;5278;42.656;23.374;2023-02-18T08:29:50;95308.84;;;20.28;26.33
10462;BME280;5278;42.656;23.374;2023-02-18T08:32:20;95303.03;;;20.44;26.22
10462;BME280;5278;42.656;23.374;2023-02-18T08:34:47;95295.03;;;20.32;26.41
10462;BME280;5278;42.656;23.374;2023-02-18T08:37:13;95315.81;;;19.97;26.75
10462;BME280;5278;42.656;23.374;2023-02-18T08:39:41;95300.41;;;19.31;27.21
10462;BME280;5278;42.656;23.374;2023-02-18T08:42:09;95280.31;;;18.22;28.05
10462;BME280;5278;42.656;23.374;2023-02-18T08:44:38;95294.09;;;17.64;29.24
10462;BME280;5278;42.656;23.374;2023-02-18T08:47:04;95293.97;;;17.18;29.63
10462;BME280;5278;42.656;23.374;2023-02-18T08:49:31;95289.19;;;16.74;30.04
10462;BME280;5278;42.656;23.374;2023-02-18T08:51:58;95305.75;;;16.41;30.93
10462;BME280;5278;42.656;23.374;2023-02-18T08:54:25;95310.13;;;16.27;31.24
10462;BME280;5278;42.656;23.374;2023-02-18T08:56:53;95314.56;;;15.99;31.70
10462;BME280;5278;42.656;23.374;2023-02-18T08:59:22;95322.69;;;15.82;31.77
10462;BME280;5278;42.656;23.374;2023-02-18T09:01:50;95304.91;;;15.78;31.87
10462;BME280;5278;42.656;23.374;2023-02-18T09:04:18;95316.81;;;15.80;32.35
10462;BME280;5278;42.656;23.374;2023-02-18T09:06:45;95302.47;;;15.98;31.92
10462;BME280;5278;42.656;23.374;2023-02-18T09:09:15;95312.22;;;16.45;31.49
10462;BME280;5278;42.656;23.374;2023-02-18T09:11:42;95310.00;;;16.76;31.01
10462;BME280;5278;42.656;23.374;2023-02-18T09:14:11;95307.69;;;17.01;30.58
10462;BME280;5278;42.656;23.374;2023-02-18T09:16:39;95321.97;;;17.59;29.65
10462;BME280;5278;42.656;23.374;2023-02-18T09:19:08;95309.91;;;17.97;29.28
10462;BME280;5278;42.656;23.374;2023-02-18T09:21:36;95299.75;;;18.21;28.97
10462;BME280;5278;42.656;23.374;2023-02-18T09:24:03;95290.97;;;18.66;28.13
10462;BME280;5278;42.656;23.374;2023-02-18T09:26:30;95303.97;;;19.12;27.93
10462;BME280;5278;42.656;23.374;2023-02-18T09:28:58;95292.81;;;19.48;27.58
10462;BME280;5278;42.656;23.374;2023-02-18T09:31:26;95287.69;;;20.09;26.74
10462;BME280;5278;42.656;23.374;2023-02-18T09:33:56;95269.75;;;20.79;25.83
10462;BME280;5278;42.656;23.374;2023-02-18T09:36:25;95268.94;;;21.68;25.24
10462;BME280;5278;42.656;23.374;2023-02-18T09:38:52;95241.88;;;22.94;23.55
10462;BME280;5278;42.656;23.374;2023-02-18T09:41:26;95262.31;;;23.67;22.36
10462;BME280;5278;42.656;23.374;2023-02-18T09:43:57;95260.31;;;23.57;22.17
10462;BME280;5278;42.656;23.374;2023-02-18T09:46:28;95258.81;;;23.95;21.96
10462;BME280;5278;42.656;23.374;2023-02-18T09:49:00;95266.13;;;24.38;21.90
10462;BME280;5278;42.656;23.374;2023-02-18T09:51:30;95258.41;;;24.97;21.26
10462;BME280;5278;42.656;23.374;2023-02-18T09:53:57;95261.00;;;25.35;21.22
10462;BME280;5278;42.656;23.374;2023-02-18T09:56:27;95250.69;;;26.02;20.01
10462;BME280;5278;42.656;23.374;2023-02-18T09:58:57;95272.69;;;25.61;20.08
10462;BME280;5278;42.656;23.374;2023-02-18T10:01:29;95252.53;;;24.56;21.00
10462;BME280;5278;42.656;23.374;2023-02-18T10:04:00;95255.72;;;23.53;21.68
10462;BME280;5278;42.656;23.374;2023-02-18T10:06:32;95254.59;;;22.69;23.05
10462;BME280;5278;42.656;23.374;2023-02-18T10:09:02;95238.13;;;22.79;23.01
10462;BME280;5278;42.656;23.374;2023-02-18T10:11:33;95244.09;;;23.42;22.75
10462;BME280;5278;42.656;23.374;2023-02-18T10:14:04;95238.03;;;24.64;21.43
10462;BME280;5278;42.656;23.374;2023-02-18T10:16:35;95221.50;;;25.86;20.12
10462;BME280;5278;42.656;23.374;2023-02-18T10:19:04;95230.34;;;26.75;19.35
10462;BME280;5278;42.656;23.374;2023-02-18T10:21:38;95233.34;;;27.71;18.38
10462;BME280;5278;42.656;23.374;2023-02-18T10:24:24;95228.00;;;28.27;17.54
10462;BME280;5278;42.656;23.374;2023-02-18T10:26:52;95221.75;;;29.36;16.96
10462;BME280;5278;42.656;23.374;2023-02-18T10:29:22;95215.31;;;30.10;16.51
10462;BME280;5278;42.656;23.374;2023-02-18T10:31:55;95222.63;;;30.62;16.29
10462;BME280;5278;42.656;23.374;2023-02-18T10:34:39;95212.25;;;30.98;15.84
10462;BME280;5278;42.656;23.374;2023-02-18T10:37:21;95204.44;;;30.25;15.99
10462;BME280;5278;42.656;23.374;2023-02-18T10:40:01;95187.44;;;30.35;15.97
10462;BME280;5278;42.656;23.374;2023-02-18T10:42:38;95213.00;;;31.04;15.48
10462;BME280;5278;42.656;23.374;2023-02-18T10:45:17;95186.81;;;31.14;15.35
10462;BME280;5278;42.656;23.374;2023-02-18T10:47:54;95178.22;;;31.50;15.13
10462;BME280;5278;42.656;23.374;2023-02-18T10:50:27;95184.47;;;31.45;15.02
10462;BME280;5278;42.656;23.374;2023-02-18T10:53:00;95184.63;;;31.54;14.84
10462;BME280;5278;42.656;23.374;2023-02-18T10:55:36;95178.50;;;31.48;14.78
10462;BME280;5278;42.656;23.374;2023-02-18T10:58:05;95148.00;;;31.77;14.93
10462;BME280;5278;42.656;23.374;2023-02-18T11:00:49;95174.66;;;32.52;14.37
10462;BME280;5278;42.656;23.374;2023-02-18T11:03:19;95173.97;;;32.87;14.31
10462;BME280;5278;42.656;23.374;2023-02-18T11:05:49;95168.47;;;32.05;14.17
10462;BME280;5278;42.656;23.374;2023-02-18T11:08:20;95160.50;;;30.93;15.12
10462;BME280;5278;42.656;23.374;2023-02-18T11:10:48;95163.63;;;29.71;15.78
10462;BME280;5278;42.656;23.374;2023-02-18T11:13:17;95162.34;;;28.60;16.52
10462;BME280;5278;42.656;23.374;2023-02-18T11:16:00;95153.88;;;28.43;16.68
10462;BME280;5278;42.656;23.374;2023-02-18T11:18:34;95146.69;;;28.97;16.31
10462;BME280;5278;42.656;23.374;2023-02-18T11:21:04;95138.09;;;28.41;16.80
10462;BME280;5278;42.656;23.374;2023-02-18T11:23:44;95136.09;;;27.62;17.35
10462;BME280;5278;42.656;23.374;2023-02-18T11:26:14;95131.75;;;27.06;18.03
10462;BME280;5278;42.656;23.374;2023-02-18T11:28:45;95116.72;;;26.64;18.04
10462;BME280;5278;42.656;23.374;2023-02-18T11:31:19;95109.84;;;26.21;18.55
10462;BME280;5278;42.656;23.374;2023-02-18T11:33:49;95114.00;;;26.54;18.55
10462;BME280;5278;42.656;23.374;2023-02-18T11:36:22;95106.91;;;26.85;18.44
10462;BME280;5278;42.656;23.374;2023-02-18T11:38:53;95113.38;;;27.29;18.36
10462;BME280;5278;42.656;23.374;2023-02-18T11:41:29;95101.38;;;27.67;17.28
10462;BME280;5278;42.656;23.374;2023-02-18T11:43:58;95092.25;;;27.89;16.91
10462;BME280;5278;42.656;23.374;2023-02-18T11:46:27;95094.09;;;27.98;16.76
10462;BME280;5278;42.656;23.374;2023-02-18T11:48:54;95084.47;;;27.97;16.85
10462;BME280;5278;42.656;23.374;2023-02-18T11:51:24;95067.69;;;27.76;17.16
10462;BME280;5278;42.656;23.374;2023-02-18T11:54:01;95089.06;;;27.41;17.04
10462;BME280;5278;42.656;23.374;2023-02-18T11:56:30;95086.41;;;27.31;17.20
10462;BME280;5278;42.656;23.374;2023-02-18T11:58:59;95077.59;;;27.20;17.43
10462;BME280;5278;42.656;23.374;2023-02-18T12:01:40;95074.16;;;27.20;17.51
10462;BME280;5278;42.656;23.374;2023-02-18T12:04:12;95052.25;;;27.28;17.68
10462;BME280;5278;42.656;23.374;2023-02-18T12:06:46;95050.91;;;27.00;17.82
10462;BME280;5278;42.656;23.374;2023-02-18T12:09:23;94991.59;;;26.37;17.73
10462;BME280;5278;42.656;23.374;2023-02-18T12:11:55;95047.00;;;26.30;18.37
10462;BME280;5278;42.656;23.374;2023-02-18T12:14:24;95034.22;;;26.32;18.22
10462;BME280;5278;42.656;23.374;2023-02-18T12:20:03;95034.28;;;26.58;18.57
10462;BME280;5278;42.656;23.374;2023-02-18T12:22:40;95035.75;;;26.18;19.12
10462;BME280;5278;42.656;23.374;2023-02-18T12:25:34;95034.47;;;25.68;19.55
10462;BME280;5278;42.656;23.374;2023-02-18T12:28:16;95036.22;;;24.57;20.01
10462;BME280;5278;42.656;23.374;2023-02-18T12:31:06;95023.09;;;23.42;21.26
10462;BME280;5278;42.656;23.374;2023-02-18T12:33:46;95023.56;;;22.55;22.61
10462;BME280;5278;42.656;23.374;2023-02-18T12:36:26;95029.25;;;22.19;23.25
10462;BME280;5278;42.656;23.374;2023-02-18T12:39:09;95022.06;;;21.91;23.75
10462;BME280;5278;42.656;23.374;2023-02-18T12:44:42;95017.34;;;21.41;24.39
10462;BME280;5278;42.656;23.374;2023-02-18T12:47:26;95013.63;;;21.66;24.20
10462;BME280;5278;42.656;23.374;2023-02-18T12:53:04;95014.22;;;21.44;24.52
10462;BME280;5278;42.656;23.374;2023-02-18T12:55:45;95008.00;;;21.39;24.58
10462;BME280;5278;42.656;23.374;2023-02-18T12:58:22;95001.31;;;21.48;24.61
10462;BME280;5278;42.656;23.374;2023-02-18T13:01:30;95005.13;;;21.92;24.16
10462;BME280;5278;42.656;23.374;2023-02-18T13:04:13;95014.91;;;22.03;24.15
10462;BME280;5278;42.656;23.374;2023-02-18T13:07:01;95006.22;;;22.19;23.87
10462;BME280;5278;42.656;23.374;2023-02-18T13:09:45;95010.47;;;21.80;24.00
10462;BME280;5278;42.656;23.374;2023-02-18T13:12:19;95001.91;;;21.50;24.13
10462;BME280;5278;42.656;23.374;2023-02-18T13:14:48;95002.81;;;21.56;24.17
10462;BME280;5278;42.656;23.374;2023-02-18T13:17:24;95002.81;;;21.56;23.75
10462;BME280;5278;42.656;23.374;2023-02-18T13:19:54;95001.44;;;21.53;24.03
10462;BME280;5278;42.656;23.374;2023-02-18T13:22:24;95005.09;;;21.52;23.78
10462;BME280;5278;42.656;23.374;2023-02-18T13:24:54;94997.97;;;21.53;23.79
10462;BME280;5278;42.656;23.374;2023-02-18T13:27:27;95002.72;;;21.51;24.10
10462;BME280;5278;42.656;23.374;2023-02-18T13:30:15;95010.88;;;21.37;23.72
10462;BME280;5278;42.656;23.374;2023-02-18T13:32:57;95008.91;;;21.10;23.99
10462;BME280;5278;42.656;23.374;2023-02-18T13:35:30;94998.78;;;20.72;24.28
10462;BME280;5278;42.656;23.374;2023-02-18T13:38:21;95007.28;;;20.74;24.57